createdAt,value
2023-05-11T00:00:37.038Z,3.9
2023-05-11T00:05:20.953Z,3.8
2023-05-11T00:10:27.335Z,3.9
2023-05-11T00:15:32.232Z,3.8
2023-05-11T00:20:22.915Z,4.3
2023-05-11T00:25:27.356Z,5.2
2023-05-11T00:30:16.465Z,5.2
2023-05-11T00:35:22.686Z,5.7
2023-05-11T00:40:28.482Z,6.0
2023-05-11T00:45:17.505Z,6.9
2023-05-11T00:50:23.847Z,6.7
2023-05-11T00:55:29.598Z,5.9
2023-05-11T01:00:20.706Z,6.0
2023-05-11T01:05:25.326Z,5.8
2023-05-11T01:10:31.138Z,6.1
2023-05-11T01:15:19.792Z,6.1
2023-05-11T01:20:26.994Z,6.5
2023-05-11T01:25:31.788Z,6.4
2023-05-11T01:30:20.941Z,6.4
2023-05-11T01:35:28.702Z,5.9
2023-05-11T01:40:32.911Z,6.6
2023-05-11T01:45:22.191Z,6.7
2023-05-11T01:50:27.964Z,6.9
2023-05-11T01:55:17.267Z,6.3
2023-05-11T02:00:26.214Z,6.3
2023-05-11T02:05:29.941Z,6.1
2023-05-11T02:10:17.872Z,5.7
2023-05-11T02:15:24.385Z,6.4
2023-05-11T02:20:30.076Z,6.0
2023-05-11T02:25:19.345Z,5.9
2023-05-11T02:30:25.111Z,5.8
2023-05-11T02:35:31.221Z,5.7
2023-05-11T02:40:22.008Z,5.4
2023-05-11T02:45:26.843Z,5.8
2023-05-11T02:50:19.174Z,5.2
2023-05-11T02:55:21.946Z,5.5
2023-05-11T03:00:29.242Z,5.5
2023-05-11T03:05:33.143Z,5.4
2023-05-11T03:10:22.385Z,4.9
2023-05-11T03:15:28.221Z,5.8
2023-05-11T03:20:17.708Z,5.8
2023-05-11T03:25:23.318Z,5.7
2023-05-11T03:30:29.411Z,5.9
2023-05-11T03:35:18.663Z,5.7
2023-05-11T03:40:26.206Z,5.2
2023-05-11T03:45:30.588Z,5.0
2023-05-11T03:50:19.986Z,5.2
2023-05-11T03:55:25.644Z,5.1
2023-05-11T04:00:34.951Z,5.5
2023-05-11T04:05:21.425Z,5.9
2023-05-11T04:10:27.165Z,5.3
2023-05-11T04:15:33.055Z,6.0
2023-05-11T04:20:23.144Z,6.4
2023-05-11T04:25:28.111Z,6.5
2023-05-11T04:30:17.097Z,5.7
2023-05-11T04:35:23.001Z,6.2
2023-05-11T04:40:29.289Z,5.7
2023-05-11T04:45:18.062Z,5.4
2023-05-11T04:50:24.220Z,5.3
2023-05-11T04:55:30.484Z,5.3
2023-05-11T05:00:27.778Z,5.4
2023-05-11T05:05:25.167Z,5.1
2023-05-11T05:10:30.980Z,4.9
2023-05-11T05:15:19.248Z,6.4
2023-05-11T05:20:25.892Z,6.2
2023-05-11T05:25:31.326Z,5.2
2023-05-11T05:30:20.734Z,5.3
2023-05-11T05:35:26.478Z,5.1
2023-05-11T05:40:32.560Z,5.1
2023-05-11T05:45:21.837Z,5.3
2023-05-11T05:50:28.053Z,5.3
2023-05-11T05:55:16.966Z,6.1
2023-05-11T06:00:27.511Z,5.4
2023-05-11T06:05:29.471Z,6.5
2023-05-11T06:10:18.279Z,6.6
2023-05-11T06:15:24.184Z,5.2
2023-05-11T06:20:30.570Z,4.9
2023-05-11T06:25:19.278Z,4.8
2023-05-11T06:30:25.594Z,5.0
2023-05-11T06:35:31.480Z,5.3
2023-05-11T06:40:20.989Z,4.8
2023-05-11T06:45:27.352Z,4.9
2023-05-11T06:50:32.863Z,4.5
2023-05-11T06:55:21.648Z,4.3
2023-05-11T07:00:29.741Z,4.3
2023-05-11T07:05:17.085Z,4.6
2023-05-11T07:10:23.471Z,4.4
2023-05-11T07:15:28.889Z,5.0
2023-05-11T07:20:19.545Z,4.8
2023-05-11T07:25:24.258Z,5.7
2023-05-11T07:30:30.022Z,5.5
2023-05-11T07:35:19.823Z,5.9
2023-05-11T07:40:27.420Z,4.2
2023-05-11T07:45:31.210Z,4.2
2023-05-11T07:50:22.950Z,3.9
2023-05-11T07:55:26.796Z,3.6
2023-05-11T08:00:36.439Z,2.0
2023-05-11T08:05:21.245Z,1.5
2023-05-11T08:10:27.161Z,1.4
2023-05-11T08:15:32.295Z,1.1
2023-05-11T08:20:22.340Z,0.9
2023-05-11T08:25:27.423Z,0.9
2023-05-11T08:30:16.962Z,1.0
2023-05-11T08:35:22.820Z,1.1
2023-05-11T08:40:28.910Z,1.2
2023-05-11T08:45:18.091Z,1.3
2023-05-11T08:50:23.974Z,1.3
2023-05-11T08:55:30.223Z,1.3
2023-05-11T09:00:19.311Z,1.3
2023-05-11T09:05:25.547Z,1.3
2023-05-11T09:10:32.030Z,1.5
2023-05-11T09:15:20.012Z,1.5
2023-05-11T09:20:26.831Z,1.7
2023-05-11T09:25:31.974Z,2.0
2023-05-11T09:30:23.438Z,1.8
2023-05-11T09:35:27.036Z,1.7
2023-05-11T09:40:34.173Z,1.9
2023-05-11T09:45:22.104Z,1.5
2023-05-11T09:50:28.212Z,1.6
2023-05-11T09:55:17.297Z,1.3
2023-05-11T10:00:27.114Z,1.5
2023-05-11T10:05:28.409Z,2.2
2023-05-11T10:10:18.007Z,3.3
2023-05-11T10:15:24.022Z,2.5
2023-05-11T10:20:30.388Z,1.6
2023-05-11T10:25:19.379Z,1.5
2023-05-11T10:30:25.247Z,1.7
2023-05-11T10:35:31.471Z,1.7
2023-05-11T10:40:21.525Z,1.5
2023-05-11T10:45:26.733Z,1.2
2023-05-11T10:50:32.737Z,1.2
2023-05-11T10:55:21.371Z,1.0
2023-05-11T11:00:29.792Z,0.9
2023-05-11T11:05:33.165Z,0.9
2023-05-11T11:10:21.874Z,0.9
2023-05-11T11:15:27.875Z,1.0
2023-05-11T11:20:17.791Z,1.1
2023-05-11T11:25:22.991Z,1.3
2023-05-11T11:30:28.862Z,1.1
2023-05-11T11:35:18.346Z,1.1
2023-05-11T11:40:24.104Z,1.2
2023-05-11T11:45:30.190Z,1.2
2023-05-11T11:50:19.165Z,1.2
2023-05-11T11:55:25.045Z,1.1
2023-05-11T12:00:36.747Z,1.0
2023-05-11T12:05:20.047Z,1.1
2023-05-11T12:10:25.766Z,1.2
2023-05-11T12:15:32.662Z,1.1
2023-05-11T12:20:21.318Z,1.2
2023-05-11T12:25:27.311Z,1.5
2023-05-11T12:30:33.392Z,1.1
2023-05-11T12:35:22.084Z,1.0
2023-05-11T12:40:28.205Z,1.3
2023-05-11T12:45:17.411Z,1.8
2023-05-11T12:50:23.565Z,5.3
2023-05-11T12:55:29.626Z,2.2
2023-05-11T13:00:21.863Z,7.4
2023-05-11T13:05:24.028Z,7.9
2023-05-11T13:10:29.817Z,11.9
2023-05-11T13:15:19.080Z,8.5
2023-05-11T13:20:26.625Z,27.1
2023-05-11T13:25:31.314Z,12.3
2023-05-11T13:30:20.508Z,9.4
2023-05-11T13:35:26.452Z,3.6
2023-05-11T13:40:34.089Z,5.2
2023-05-11T13:45:21.572Z,6.6
2023-05-11T13:50:27.354Z,3.3
2023-05-11T13:55:33.643Z,2.1
2023-05-11T14:00:25.109Z,2.1
2023-05-11T14:05:28.152Z,2.2
2023-05-11T14:10:17.312Z,1.6
2023-05-11T14:15:22.519Z,1.6
2023-05-11T14:20:28.396Z,1.5
2023-05-11T14:25:17.907Z,1.8
2023-05-11T14:30:23.420Z,1.7
2023-05-11T14:35:29.772Z,1.8
2023-05-11T14:40:19.873Z,2.2
2023-05-11T14:45:24.879Z,2.3
2023-05-11T14:50:30.684Z,3.0
2023-05-11T14:55:20.264Z,3.0
2023-05-11T15:00:27.609Z,2.7
2023-05-11T15:05:31.513Z,2.7
2023-05-11T15:10:20.293Z,3.4
2023-05-11T15:15:26.593Z,3.6
2023-05-11T15:20:32.703Z,4.1
2023-05-11T15:25:22.024Z,7.9
2023-05-11T15:30:27.808Z,7.5
2023-05-11T15:35:17.296Z,3.8
2023-05-11T15:40:23.452Z,4.7
2023-05-11T15:45:29.096Z,4.2
2023-05-11T15:50:18.185Z,5.2
2023-05-11T15:55:24.031Z,8.4
2023-05-11T16:00:35.062Z,4.3
2023-05-11T16:05:19.616Z,7.8
2023-05-11T16:10:24.958Z,7.9
2023-05-11T16:15:30.980Z,19.0
2023-05-11T16:20:21.712Z,8.2
2023-05-11T16:25:26.101Z,6.8
2023-05-11T16:30:32.482Z,8.8
2023-05-11T16:35:21.182Z,4.7
2023-05-11T16:40:27.590Z,4.9
2023-05-11T16:45:17.963Z,4.0
2023-05-11T16:50:22.651Z,7.5
2023-05-11T16:55:28.695Z,5.2
2023-05-11T17:00:19.135Z,4.0
2023-05-11T17:05:23.502Z,5.4
2023-05-11T17:10:29.510Z,5.3
2023-05-11T17:15:19.271Z,3.6
2023-05-11T17:20:24.462Z,4.0
2023-05-11T17:25:29.840Z,5.8
2023-05-11T17:30:18.958Z,9.4
2023-05-11T17:35:24.676Z,69.5
2023-05-11T17:40:31.029Z,42.5
2023-05-11T17:45:20.241Z,13.8
2023-05-11T17:50:26.152Z,14.5
2023-05-11T17:55:31.884Z,9.9
2023-05-11T18:00:23.806Z,7.5
2023-05-11T18:05:40.510Z,6.3
2023-05-11T18:10:32.970Z,5.2
2023-05-11T18:15:22.005Z,5.4
2023-05-11T18:20:28.105Z,4.6
2023-05-11T18:25:17.124Z,4.9
2023-05-11T18:30:23.440Z,5.7
2023-05-11T18:35:29.219Z,4.5
2023-05-11T18:40:24.035Z,5.2
2023-05-11T18:45:24.602Z,5.6
2023-05-11T18:50:30.674Z,5.9
2023-05-11T18:55:19.682Z,6.3
2023-05-11T19:00:27.890Z,5.7
2023-05-11T19:05:31.340Z,6.2
2023-05-11T19:10:22.552Z,6.7
2023-05-11T19:15:42.595Z,7.2
2023-05-11T19:20:34.266Z,6.5
2023-05-11T19:25:23.313Z,6.5
2023-05-11T19:30:26.712Z,6.5
2023-05-11T19:35:32.487Z,6.2
2023-05-11T19:40:44.013Z,6.2
2023-05-11T19:45:29.190Z,6.7
2023-05-11T19:50:17.049Z,7.0
2023-05-11T19:55:22.712Z,6.6
2023-05-11T20:00:32.799Z,7.0
2023-05-11T20:05:17.214Z,6.7
2023-05-11T20:10:23.860Z,8.0
2023-05-11T20:15:29.816Z,7.0
2023-05-11T20:20:20.531Z,7.3
2023-05-11T20:25:25.021Z,7.6
2023-05-11T20:30:30.857Z,8.2
2023-05-11T20:35:20.073Z,8.0
2023-05-11T20:40:26.670Z,8.1
2023-05-11T20:45:32.312Z,8.8
2023-05-11T20:50:21.559Z,8.4
2023-05-11T20:55:27.103Z,8.7
2023-05-11T21:00:33.290Z,8.6
2023-05-11T21:05:26.874Z,9.0
2023-05-11T21:10:27.627Z,8.5
2023-05-11T21:15:17.284Z,8.7
2023-05-11T21:20:24.341Z,8.7
2023-05-11T21:25:29.347Z,8.7
2023-05-11T21:30:18.273Z,8.7
2023-05-11T21:35:24.874Z,9.1
2023-05-11T21:40:30.293Z,9.2
2023-05-11T21:45:19.301Z,9.1
2023-05-11T21:50:25.400Z,8.4
2023-05-11T21:55:31.714Z,8.2
2023-05-11T22:00:25.653Z,8.7
2023-05-11T22:05:26.224Z,9.0
2023-05-11T22:10:18.962Z,9.9
2023-05-11T22:15:20.214Z,9.7
2023-05-11T22:20:27.242Z,9.3
2023-05-11T22:25:33.232Z,9.1
2023-05-11T22:30:24.456Z,8.8
2023-05-11T22:35:27.753Z,8.8
2023-05-11T22:40:18.142Z,9.3
2023-05-11T22:45:22.818Z,9.3
2023-05-11T22:50:28.642Z,9.4
2023-05-11T22:55:17.614Z,9.2
2023-05-11T23:00:25.526Z,9.5
2023-05-11T23:05:30.120Z,9.0
2023-05-11T23:10:19.547Z,8.8
2023-05-11T23:15:24.607Z,8.9
2023-05-11T23:20:30.918Z,9.1
2023-05-11T23:25:19.750Z,10.1
2023-05-11T23:30:25.849Z,8.4
2023-05-11T23:35:31.877Z,7.6
2023-05-11T23:40:22.339Z,7.3
2023-05-11T23:45:26.952Z,9.7
2023-05-11T23:50:33.145Z,8.7
2023-05-11T23:55:22.361Z,8.4
